createdAt,value
2022-12-18T00:02:02.251Z,69.93
2022-12-18T00:04:33.049Z,69.80
2022-12-18T00:07:04.003Z,69.63
2022-12-18T00:09:39.189Z,69.75
2022-12-18T00:14:46.745Z,69.81
2022-12-18T00:17:17.230Z,69.76
2022-12-18T00:19:47.646Z,69.77
2022-12-18T00:22:25.793Z,69.70
2022-12-18T00:24:56.247Z,69.31
2022-12-18T00:27:26.716Z,69.76
2022-12-18T00:29:57.297Z,69.95
2022-12-18T00:32:27.825Z,69.96
2022-12-18T00:34:58.246Z,69.83
2022-12-18T00:37:28.685Z,69.99
2022-12-18T00:39:59.927Z,70.01
2022-12-18T00:42:47.975Z,69.92
2022-12-18T00:45:18.466Z,69.88
2022-12-18T00:47:50.341Z,69.85
2022-12-18T00:50:21.225Z,69.72
2022-12-18T00:52:52.229Z,69.99
2022-12-18T00:55:22.698Z,69.99
2022-12-18T00:57:54.614Z,70.14
2022-12-18T01:00:25.595Z,70.03
2022-12-18T01:02:56.110Z,69.89
2022-12-18T01:05:27.125Z,69.98
2022-12-18T01:07:58.986Z,70.07
2022-12-18T01:10:29.527Z,69.67
2022-12-18T01:13:01.484Z,70.07
2022-12-18T01:15:32.598Z,70.11
2022-12-18T01:18:03.164Z,70.10
2022-12-18T01:20:33.658Z,69.72
2022-12-18T01:23:04.090Z,69.54
2022-12-18T01:25:34.534Z,69.51
2022-12-18T01:28:05.390Z,69.45
2022-12-18T01:30:36.438Z,69.59
2022-12-18T01:33:07.561Z,69.34
2022-12-18T01:35:44.870Z,69.35
2022-12-18T01:38:15.285Z,69.74
2022-12-18T01:40:45.728Z,69.58
2022-12-18T01:43:16.437Z,69.70
2022-12-18T01:45:47.134Z,69.65
2022-12-18T01:48:17.703Z,69.58
2022-12-18T01:50:48.827Z,69.49
2022-12-18T01:53:25.430Z,69.54
2022-12-18T01:55:58.515Z,69.48
2022-12-18T01:58:37.641Z,69.54
2022-12-18T02:01:08.570Z,69.34
2022-12-18T02:03:39.425Z,69.37
2022-12-18T02:06:15.967Z,69.44
2022-12-18T02:08:57.179Z,69.47
2022-12-18T02:11:41.857Z,69.71
2022-12-18T02:14:23.233Z,69.54
2022-12-18T02:17:01.862Z,69.73
2022-12-18T02:19:47.133Z,69.53
2022-12-18T02:22:32.189Z,69.76
2022-12-18T02:25:21.575Z,69.63
2022-12-18T02:27:54.127Z,69.57
2022-12-18T02:30:25.722Z,69.67
2022-12-18T02:32:58.124Z,69.45
2022-12-18T02:35:31.566Z,69.84
2022-12-18T02:38:03.823Z,69.75
2022-12-18T02:40:35.066Z,69.41
2022-12-18T02:43:11.202Z,69.41
2022-12-18T02:45:50.978Z,69.50
2022-12-18T02:48:26.733Z,69.31
2022-12-18T02:51:06.467Z,69.66
2022-12-18T02:53:43.462Z,69.53
2022-12-18T02:56:20.651Z,69.32
2022-12-18T02:58:58.357Z,69.13
2022-12-18T03:01:52.097Z,69.25
2022-12-18T03:04:29.116Z,69.09
2022-12-18T03:07:03.528Z,69.25
2022-12-18T03:09:37.885Z,69.24
2022-12-18T03:12:25.615Z,69.18
2022-12-18T03:15:05.401Z,69.44
2022-12-18T03:17:37.427Z,69.52
2022-12-18T03:20:14.580Z,69.43
2022-12-18T03:22:48.849Z,69.04
2022-12-18T03:25:21.171Z,69.41
2022-12-18T03:27:58.852Z,69.07
2022-12-18T03:30:33.318Z,69.46
2022-12-18T03:33:09.244Z,68.96
2022-12-18T03:35:43.866Z,69.27
2022-12-18T03:38:15.652Z,69.31
2022-12-18T03:40:58.344Z,69.25
2022-12-18T03:43:42.655Z,69.14
2022-12-18T03:46:22.556Z,69.20
2022-12-18T03:49:00.131Z,69.20
2022-12-18T03:51:39.799Z,68.91
2022-12-18T03:54:12.568Z,69.18
2022-12-18T03:56:53.660Z,68.69
2022-12-18T03:59:27.051Z,68.68
2022-12-18T04:02:01.164Z,68.67
2022-12-18T04:04:33.144Z,68.71
2022-12-18T04:07:05.584Z,68.28
2022-12-18T04:09:40.349Z,68.66
2022-12-18T04:12:13.176Z,68.53
2022-12-18T04:14:44.519Z,68.57
2022-12-18T04:17:17.740Z,68.57
2022-12-18T04:19:48.694Z,68.63
2022-12-18T04:22:19.729Z,68.46
2022-12-18T04:24:51.774Z,68.21
2022-12-18T04:27:28.746Z,68.36
2022-12-18T04:29:59.430Z,68.40
2022-12-18T04:32:29.857Z,68.30
2022-12-18T04:35:00.336Z,68.33
2022-12-18T04:37:30.817Z,68.49
2022-12-18T04:40:01.925Z,68.35
2022-12-18T04:42:37.824Z,68.16
2022-12-18T04:45:10.953Z,68.42
2022-12-18T04:47:41.466Z,68.21
2022-12-18T04:50:12.811Z,68.48
2022-12-18T04:52:43.237Z,68.56
2022-12-18T04:55:13.733Z,68.47
2022-12-18T04:57:44.189Z,68.38
2022-12-18T05:00:16.431Z,68.67
2022-12-18T05:02:47.039Z,68.57
2022-12-18T05:05:17.848Z,68.50
2022-12-18T05:07:48.261Z,68.36
2022-12-18T05:10:18.946Z,68.37
2022-12-18T05:13:02.254Z,68.24
2022-12-18T05:15:34.463Z,68.27
2022-12-18T05:18:06.400Z,68.25
2022-12-18T05:20:36.837Z,68.13
2022-12-18T05:23:07.283Z,67.98
2022-12-18T05:25:37.739Z,67.85
2022-12-18T05:28:08.280Z,67.60
2022-12-18T05:30:38.680Z,67.49
2022-12-18T05:33:09.138Z,67.35
2022-12-18T05:35:39.703Z,67.23
2022-12-18T05:38:10.137Z,67.14
2022-12-18T05:40:43.221Z,67.18
2022-12-18T05:43:19.370Z,66.96
2022-12-18T05:45:52.164Z,66.93
2022-12-18T05:48:23.412Z,66.84
2022-12-18T05:50:54.248Z,66.84
2022-12-18T05:53:24.671Z,66.41
2022-12-18T05:55:55.207Z,66.59
2022-12-18T05:58:25.944Z,66.68
2022-12-18T06:00:56.436Z,66.60
2022-12-18T06:03:32.194Z,66.50
2022-12-18T06:06:04.583Z,66.50
2022-12-18T06:08:35.000Z,66.58
2022-12-18T06:11:05.613Z,66.69
2022-12-18T06:13:36.288Z,66.64
2022-12-18T06:16:09.013Z,66.56
2022-12-18T06:18:39.705Z,66.38
2022-12-18T06:21:10.335Z,66.57
2022-12-18T06:23:41.153Z,66.53
2022-12-18T06:26:14.056Z,66.51
2022-12-18T06:28:45.113Z,66.64
2022-12-18T06:31:15.974Z,66.77
2022-12-18T06:33:46.463Z,66.57
2022-12-18T06:36:18.064Z,66.76
2022-12-18T06:38:48.649Z,66.78
2022-12-18T06:41:21.618Z,66.86
2022-12-18T06:43:56.781Z,66.72
2022-12-18T06:46:28.700Z,66.62
2022-12-18T06:48:59.275Z,67.14
2022-12-18T06:51:29.713Z,66.71
2022-12-18T06:54:00.246Z,66.88
2022-12-18T06:56:31.286Z,66.99
2022-12-18T06:59:01.698Z,66.91
2022-12-18T07:01:32.215Z,67.01
2022-12-18T07:04:02.907Z,66.83
2022-12-18T07:06:33.401Z,66.83
2022-12-18T07:09:04.290Z,66.79
2022-12-18T07:11:36.085Z,66.88
2022-12-18T07:14:06.587Z,66.35
2022-12-18T07:16:37.054Z,66.75
2022-12-18T07:19:07.807Z,66.52
2022-12-18T07:21:38.231Z,66.28
2022-12-18T07:24:09.992Z,66.52
2022-12-18T07:26:41.373Z,66.47
2022-12-18T07:29:11.776Z,66.32
2022-12-18T07:31:42.594Z,66.04
2022-12-18T07:34:16.008Z,65.93
2022-12-18T07:36:46.503Z,65.84
2022-12-18T07:39:17.339Z,65.70
2022-12-18T07:42:08.844Z,65.40
2022-12-18T07:44:39.935Z,65.57
2022-12-18T07:47:12.295Z,65.28
2022-12-18T07:49:43.114Z,65.62
2022-12-18T07:52:13.631Z,65.49
2022-12-18T07:54:44.173Z,65.35
2022-12-18T07:57:41.401Z,65.33
2022-12-18T08:00:05.506Z,65.29
2022-12-18T08:02:42.857Z,65.33
2022-12-18T08:05:14.454Z,65.03
2022-12-18T08:07:44.985Z,65.21
2022-12-18T08:10:15.610Z,65.11
2022-12-18T08:12:46.407Z,65.39
2022-12-18T08:15:16.941Z,65.28
2022-12-18T08:17:47.359Z,65.07
2022-12-18T08:20:19.476Z,65.26
2022-12-18T08:22:50.106Z,65.05
2022-12-18T08:25:20.634Z,65.07
2022-12-18T08:27:51.094Z,65.11
2022-12-18T08:30:21.988Z,65.17
2022-12-18T08:32:55.845Z,64.94
2022-12-18T08:35:26.341Z,65.12
2022-12-18T08:37:56.739Z,65.32
2022-12-18T08:40:27.295Z,65.25
2022-12-18T08:43:15.376Z,65.18
2022-12-18T08:45:46.028Z,65.07
2022-12-18T08:48:21.887Z,65.10
2022-12-18T08:50:59.280Z,64.97
2022-12-18T08:53:35.360Z,64.99
2022-12-18T08:56:07.603Z,64.96
2022-12-18T08:58:38.052Z,65.07
2022-12-18T09:01:10.986Z,64.74
2022-12-18T09:03:42.195Z,64.74
2022-12-18T09:06:17.955Z,64.87
2022-12-18T09:08:48.794Z,64.93
2022-12-18T09:11:23.843Z,64.69
2022-12-18T09:13:55.181Z,64.54
2022-12-18T09:16:32.330Z,64.47
2022-12-18T09:19:03.922Z,64.73
2022-12-18T09:21:37.162Z,64.35
2022-12-18T09:24:13.303Z,64.56
2022-12-18T09:26:47.411Z,64.40
2022-12-18T09:29:18.972Z,64.53
2022-12-18T09:31:50.595Z,64.32
2022-12-18T09:34:22.795Z,64.23
2022-12-18T09:36:53.823Z,63.98
2022-12-18T09:39:25.053Z,64.11
2022-12-18T09:41:58.279Z,63.87
2022-12-18T09:44:32.310Z,63.67
2022-12-18T09:47:13.668Z,63.73
2022-12-18T09:49:47.227Z,63.52
2022-12-18T09:52:23.919Z,63.46
2022-12-18T09:54:59.161Z,63.31
2022-12-18T09:57:33.057Z,63.05
2022-12-18T10:00:13.773Z,63.09
2022-12-18T10:02:45.553Z,62.74
2022-12-18T10:05:18.374Z,62.92
2022-12-18T10:07:57.282Z,62.88
2022-12-18T10:10:36.452Z,62.76
2022-12-18T10:13:09.523Z,62.70
2022-12-18T10:15:49.182Z,62.72
2022-12-18T10:18:32.182Z,62.87
2022-12-18T10:21:12.521Z,62.79
2022-12-18T10:23:48.381Z,62.75
2022-12-18T10:26:19.278Z,62.80
2022-12-18T10:28:50.369Z,62.72
2022-12-18T10:31:24.677Z,62.76
2022-12-18T10:33:57.077Z,62.76
2022-12-18T10:36:27.203Z,62.82
2022-12-18T10:39:15.752Z,62.93
2022-12-18T10:41:46.308Z,62.97
2022-12-18T10:44:21.257Z,62.98
2022-12-18T10:46:56.928Z,62.77
2022-12-18T10:49:30.881Z,62.84
2022-12-18T10:52:20.996Z,63.11
2022-12-18T10:54:54.152Z,62.98
2022-12-18T10:57:39.026Z,63.06
2022-12-18T11:03:26.688Z,63.18
2022-12-18T11:06:06.386Z,63.15
2022-12-18T11:08:37.710Z,63.23
2022-12-18T11:11:18.211Z,63.05
2022-12-18T11:14:00.406Z,63.04
2022-12-18T11:16:32.863Z,63.28
2022-12-18T11:19:22.279Z,63.24
2022-12-18T11:21:54.022Z,62.99
2022-12-18T11:24:30.216Z,63.17
2022-12-18T11:27:03.321Z,63.14
2022-12-18T11:29:40.718Z,63.08
2022-12-18T11:32:36.105Z,62.98
2022-12-18T11:35:17.004Z,63.00
2022-12-18T11:37:55.382Z,62.89
2022-12-18T11:40:36.499Z,62.79
2022-12-18T11:43:16.845Z,62.81
2022-12-18T11:45:55.237Z,62.91
2022-12-18T11:48:29.642Z,62.70
2022-12-18T11:51:02.352Z,62.50
2022-12-18T11:53:33.528Z,62.61
2022-12-18T11:56:18.489Z,62.81
2022-12-18T11:58:54.001Z,62.39
2022-12-18T12:01:43.817Z,62.70
2022-12-18T12:04:43.707Z,62.56
2022-12-18T12:07:27.346Z,62.58
2022-12-18T12:10:10.567Z,62.50
2022-12-18T12:12:55.542Z,62.50
2022-12-18T12:15:41.115Z,62.32
2022-12-18T12:18:25.968Z,62.31
2022-12-18T12:21:05.634Z,62.19
2022-12-18T12:23:44.586Z,62.30
2022-12-18T12:26:24.243Z,62.29
2022-12-18T12:29:04.037Z,62.40
2022-12-18T12:31:51.207Z,62.34
2022-12-18T12:34:25.101Z,62.22
2022-12-18T12:37:10.262Z,62.57
2022-12-18T12:39:43.817Z,62.17
2022-12-18T12:42:34.690Z,62.51
2022-12-18T12:45:08.822Z,62.50
2022-12-18T12:47:44.334Z,62.35
2022-12-18T12:50:21.185Z,62.63
2022-12-18T12:52:56.866Z,62.45
2022-12-18T12:55:29.909Z,62.33
2022-12-18T12:58:10.718Z,62.44
2022-12-18T13:00:48.682Z,62.43
2022-12-18T13:03:41.968Z,62.44
2022-12-18T13:06:20.635Z,62.50
2022-12-18T13:08:58.982Z,62.43
2022-12-18T13:12:00.580Z,62.57
2022-12-18T13:14:35.321Z,62.41
2022-12-18T13:17:31.949Z,62.49
2022-12-18T13:20:15.578Z,62.53
2022-12-18T13:22:49.991Z,62.76
2022-12-18T13:25:35.746Z,62.67
2022-12-18T13:28:15.388Z,62.50
2022-12-18T13:30:53.846Z,62.55
2022-12-18T13:34:09.447Z,62.39
2022-12-18T13:36:36.349Z,62.47
2022-12-18T13:39:35.222Z,62.48
2022-12-18T13:42:58.521Z,62.46
2022-12-18T13:45:48.028Z,62.58
2022-12-18T13:48:25.075Z,62.45
2022-12-18T13:51:03.085Z,62.71
2022-12-18T13:53:39.501Z,62.60
2022-12-18T13:56:10.645Z,62.54
2022-12-18T13:58:41.417Z,62.74
2022-12-18T14:01:25.709Z,62.68
2022-12-18T14:04:19.827Z,62.73
2022-12-18T14:06:51.540Z,62.82
2022-12-18T14:09:27.275Z,63.00
2022-12-18T14:12:13.666Z,63.02
2022-12-18T14:14:49.210Z,63.11
2022-12-18T14:17:22.622Z,63.18
2022-12-18T14:19:54.820Z,63.31
2022-12-18T14:22:30.676Z,63.49
2022-12-18T14:25:18.987Z,63.65
2022-12-18T14:27:53.125Z,63.89
2022-12-18T14:30:34.443Z,63.97
2022-12-18T14:33:10.642Z,63.92
2022-12-18T14:35:42.860Z,64.12
2022-12-18T14:38:26.055Z,64.05
2022-12-18T14:41:02.039Z,64.06
2022-12-18T14:43:35.088Z,64.28
2022-12-18T14:46:07.734Z,64.37
2022-12-18T14:48:43.765Z,64.46
2022-12-18T14:51:21.865Z,64.68
2022-12-18T14:53:57.857Z,64.72
2022-12-18T14:56:31.595Z,64.65
2022-12-18T14:59:04.493Z,64.97
2022-12-18T15:01:35.461Z,64.94
2022-12-18T15:04:25.256Z,64.97
2022-12-18T15:07:10.993Z,64.86
2022-12-18T15:09:50.187Z,65.32
2022-12-18T15:12:35.298Z,64.85
2022-12-18T15:15:07.651Z,65.01
2022-12-18T15:17:39.172Z,65.11
2022-12-18T15:20:15.200Z,65.23
2022-12-18T15:22:49.314Z,65.20
2022-12-18T15:25:31.609Z,65.04
2022-12-18T15:28:02.237Z,65.23
2022-12-18T15:30:33.113Z,65.17
2022-12-18T15:33:25.791Z,65.32
2022-12-18T15:36:01.975Z,65.22
2022-12-18T15:38:33.169Z,65.27
2022-12-18T15:41:04.406Z,65.44
2022-12-18T15:43:38.424Z,65.43
2022-12-18T15:46:13.109Z,65.49
2022-12-18T15:48:45.203Z,65.48
2022-12-18T15:51:21.007Z,65.40
2022-12-18T15:53:56.008Z,65.56
2022-12-18T15:56:44.538Z,65.88
2022-12-18T15:59:17.536Z,65.74
2022-12-18T16:01:48.829Z,65.73
2022-12-18T16:04:21.707Z,65.83
2022-12-18T16:09:43.817Z,65.97
2022-12-18T16:12:20.186Z,65.80
2022-12-18T16:14:50.658Z,66.14
2022-12-18T16:17:22.047Z,66.28
2022-12-18T16:19:52.585Z,66.15
2022-12-18T16:22:26.071Z,66.31
2022-12-18T16:24:58.127Z,66.23
2022-12-18T16:27:28.966Z,66.27
2022-12-18T16:29:59.576Z,66.39
2022-12-18T16:32:30.124Z,66.52
2022-12-18T16:35:04.659Z,66.68
2022-12-18T16:37:35.145Z,66.69
2022-12-18T16:40:06.718Z,66.62
2022-12-18T16:42:38.075Z,66.38
2022-12-18T16:45:10.838Z,66.49
2022-12-18T16:47:41.653Z,66.64
2022-12-18T16:50:13.519Z,66.74
2022-12-18T16:52:44.205Z,66.41
2022-12-18T16:55:14.658Z,66.58
2022-12-18T16:57:45.165Z,66.36
2022-12-18T17:00:18.263Z,66.47
2022-12-18T17:02:48.921Z,66.53
2022-12-18T17:05:19.914Z,66.62
2022-12-18T17:07:50.660Z,66.72
2022-12-18T17:10:21.223Z,66.72
2022-12-18T17:12:53.485Z,66.67
2022-12-18T17:15:23.947Z,66.64
2022-12-18T17:17:54.369Z,66.78
2022-12-18T17:20:26.560Z,66.83
2022-12-18T17:22:57.012Z,66.89
2022-12-18T17:25:28.667Z,66.98
2022-12-18T17:27:59.067Z,66.87
2022-12-18T17:30:30.752Z,67.26
2022-12-18T17:33:01.179Z,67.18
2022-12-18T17:35:31.689Z,67.23
2022-12-18T17:38:02.127Z,67.32
2022-12-18T17:40:35.118Z,67.45
2022-12-18T17:43:04.511Z,67.57
2022-12-18T17:45:38.417Z,67.49
2022-12-18T17:48:10.400Z,67.78
2022-12-18T17:50:41.016Z,67.73
2022-12-18T17:53:11.971Z,67.82
2022-12-18T17:55:42.522Z,68.00
2022-12-18T17:58:13.031Z,67.96
2022-12-18T18:00:43.468Z,68.09
2022-12-18T18:03:14.133Z,68.08
2022-12-18T18:05:44.816Z,68.33
2022-12-18T18:08:15.354Z,68.14
2022-12-18T18:10:48.949Z,68.55
2022-12-18T18:13:46.442Z,68.40
2022-12-18T18:16:17.549Z,68.58
2022-12-18T18:18:48.091Z,68.66
2022-12-18T18:21:18.528Z,68.46
2022-12-18T18:23:50.014Z,68.44
2022-12-18T18:26:23.476Z,68.51
2022-12-18T18:28:57.978Z,68.43
2022-12-18T18:31:29.965Z,68.32
2022-12-18T18:34:00.436Z,68.42
2022-12-18T18:36:31.164Z,68.26
2022-12-18T18:39:02.465Z,68.28
2022-12-18T18:41:33.001Z,68.16
2022-12-18T18:44:03.448Z,68.48
2022-12-18T18:46:34.363Z,68.09
2022-12-18T18:49:05.814Z,68.09
2022-12-18T18:51:36.339Z,68.14
2022-12-18T18:54:07.174Z,68.12
2022-12-18T18:59:31.219Z,68.09
2022-12-18T19:02:04.225Z,67.97
2022-12-18T19:04:37.488Z,67.92
2022-12-18T19:07:13.619Z,67.90
2022-12-18T19:09:52.083Z,67.96
2022-12-18T19:12:40.041Z,67.80
2022-12-18T19:15:12.399Z,67.80
2022-12-18T19:17:44.819Z,68.01
2022-12-18T19:20:18.367Z,67.91
2022-12-18T19:22:55.388Z,67.97
2022-12-18T19:25:38.676Z,68.09
2022-12-18T19:28:21.454Z,68.09
2022-12-18T19:30:57.301Z,68.00
2022-12-18T19:33:43.108Z,68.09
2022-12-18T19:36:18.446Z,68.11
2022-12-18T19:38:49.816Z,67.95
2022-12-18T19:41:21.501Z,68.10
2022-12-18T19:43:52.797Z,67.82
2022-12-18T19:46:24.395Z,68.14
2022-12-18T19:48:55.184Z,67.72
2022-12-18T19:51:28.131Z,67.62
2022-12-18T19:54:01.427Z,67.77
2022-12-18T19:56:34.761Z,67.63
2022-12-18T19:59:06.214Z,67.48
2022-12-18T20:01:36.769Z,67.40
2022-12-18T20:04:07.633Z,67.52
2022-12-18T20:06:47.530Z,67.25
2022-12-18T20:09:19.161Z,67.22
2022-12-18T20:11:49.708Z,67.19
2022-12-18T20:14:21.172Z,67.27
2022-12-18T20:16:54.301Z,66.99
2022-12-18T20:19:27.648Z,67.25
2022-12-18T20:21:58.363Z,66.93
2022-12-18T20:24:30.043Z,66.92
2022-12-18T20:27:00.666Z,67.01
2022-12-18T20:29:32.239Z,67.04
2022-12-18T20:32:02.764Z,67.45
2022-12-18T20:34:33.492Z,67.21
2022-12-18T20:37:04.596Z,67.28
2022-12-18T20:39:35.781Z,67.18
2022-12-18T20:42:06.988Z,67.39
2022-12-18T20:44:37.484Z,67.22
2022-12-18T20:47:08.833Z,67.29
2022-12-18T20:49:39.844Z,67.35
2022-12-18T20:52:14.746Z,67.07
2022-12-18T20:54:45.213Z,66.87
2022-12-18T20:57:15.939Z,67.23
2022-12-18T20:59:48.451Z,67.18
2022-12-18T21:02:23.306Z,67.30
2022-12-18T21:04:54.792Z,67.27
2022-12-18T21:07:27.407Z,66.82
2022-12-18T21:09:57.918Z,67.02
2022-12-18T21:12:42.645Z,66.90
2022-12-18T21:15:28.921Z,66.80
2022-12-18T21:17:59.546Z,66.86
2022-12-18T21:20:30.005Z,66.83
2022-12-18T21:23:08.571Z,66.45
2022-12-18T21:25:46.699Z,66.78
2022-12-18T21:28:20.259Z,66.63
2022-12-18T21:30:51.124Z,66.58
2022-12-18T21:33:21.677Z,66.28
2022-12-18T21:35:52.255Z,66.45
2022-12-18T21:38:22.692Z,66.21
2022-12-18T21:40:53.416Z,66.68
2022-12-18T21:43:41.343Z,66.62
2022-12-18T21:46:11.969Z,66.46
2022-12-18T21:48:43.541Z,66.44
2022-12-18T21:51:13.975Z,66.42
2022-12-18T21:53:44.424Z,66.61
2022-12-18T21:56:16.931Z,66.62
2022-12-18T21:58:57.060Z,66.86
2022-12-18T22:01:30.597Z,66.27
2022-12-18T22:04:08.333Z,66.82
2022-12-18T22:06:38.974Z,66.54
2022-12-18T22:09:10.438Z,67.08
2022-12-18T22:11:41.138Z,66.61
2022-12-18T22:14:12.118Z,66.61
2022-12-18T22:16:43.026Z,66.67
2022-12-18T22:19:14.930Z,66.72
2022-12-18T22:21:47.053Z,66.55
2022-12-18T22:24:19.678Z,66.62
2022-12-18T22:26:52.986Z,66.50
2022-12-18T22:29:44.906Z,66.73
2022-12-18T22:32:17.217Z,66.39
2022-12-18T22:35:05.226Z,66.32
2022-12-18T22:37:37.574Z,66.30
2022-12-18T22:40:12.865Z,66.17
2022-12-18T22:42:44.255Z,66.16
2022-12-18T22:45:15.588Z,66.32
2022-12-18T22:47:46.111Z,65.77
2022-12-18T22:50:16.998Z,65.98
2022-12-18T22:52:47.456Z,65.82
2022-12-18T22:55:18.357Z,66.01
2022-12-18T22:57:50.257Z,65.96
2022-12-18T23:00:24.242Z,65.77
2022-12-18T23:03:00.283Z,66.16
2022-12-18T23:05:32.428Z,65.74
2022-12-18T23:08:03.154Z,66.25
2022-12-18T23:10:33.850Z,66.22
2022-12-18T23:13:04.618Z,66.35
2022-12-18T23:15:35.115Z,66.10
2022-12-18T23:18:05.790Z,66.25
2022-12-18T23:20:39.043Z,66.13
2022-12-18T23:23:10.594Z,66.56
2022-12-18T23:25:41.472Z,66.17
2022-12-18T23:28:12.308Z,65.92
2022-12-18T23:30:43.144Z,66.21
2022-12-18T23:33:13.980Z,66.20
2022-12-18T23:35:45.330Z,66.01
2022-12-18T23:38:16.167Z,66.45
2022-12-18T23:40:47.005Z,66.03
2022-12-18T23:43:19.178Z,66.11
2022-12-18T23:45:55.340Z,65.95
2022-12-18T23:48:26.581Z,66.28
2022-12-18T23:50:57.420Z,66.15
2022-12-18T23:53:29.278Z,65.90
2022-12-18T23:56:01.140Z,66.16
2022-12-18T23:58:31.978Z,66.25
